EDHLLYBE

Guest
Details From EDHL - Lubeck Blankensee
To LYBE - Belgrade
Flight Number -
Tags Generated
Created
Modified
Stats Distance 656 nm / 1,214 km
Max Altitude 0 ft / 0 m
Waypoints 5
Social Downloads 0
Likes 0
Share VATSIM

Download

Looking for another format? Having issues loading an existing format? Contact us
Advertisement - Login to hide

Notes

Generated

Route

EDHL DC042 NUBRA R2333 LYBE

ID Type Via Altitude Latitude Longitude Leg Dist Tot Dist Heading (true) Name
O EDHL APT - 0 ft / 0 m 53.80205˚ 10.70189˚ - 0 nm - -
DC042 FIX - 0 ft / 0 m 51.16198˚ 13.98561˚ 198 nm 198 nm 142° / 144° -
NUBRA FIX - 0 ft / 0 m 47.86667˚ 17.50000˚ 240 nm 439 nm 144° / 147° -
R2333 FIX - 0 ft / 0 m 44.82652˚ 20.29097˚ 216 nm 655 nm 147° / 149° -
O LYBE APT - 0 ft / 0 m 44.82652˚ 20.29097˚ 0 nm 655 nm 0° / 180° -

Altitude Profile

Advertisement - Login to hide

Weather


0- 5 10 15 20 25 30 35+ Temperature / ° C

Clouds and Precipitation
Forecast for 2018-05-27 06:00 UTC. Updated 27 minutes ago

Ground ~20,000 ft ~40,000 ft Winds

EDHL

Details ICAO EDHL (LBC)
Name Lubeck Blankensee
Region Germany - Civil
Timezone Europe/Berlin (UTC+2.0)
Stats Elevation 53 ft / 16 m (AMSL)
Location 53.804963° 10.717059°
Runways 1
Magnetic Variation 3.085° E

METAR

EDHL 270520Z 03006KT 350V080 2600 BR OVC002 13/13 Q1023

Decode

TAF

Not found

Departure Runways

ID Width Length Bearing (true) Bearing (mag) Surface Threshold Offset Overrun Length
07 197 ft / 60 m 6,877 ft / 2,096 m 71.96° 68.87° Asphalt 984 ft / 300 m 0 ft / 0 m
25 197 ft / 60 m 6,877 ft / 2,096 m 251.98° 248.89° Asphalt 0 ft / 0 m 0 ft / 0 m

LYBE

Details ICAO LYBE (BEG)
Name Belgrade
Region Serbia and Montenegro
Timezone Europe/Belgrade (UTC+2.0)
Stats Elevation 335 ft / 102 m (AMSL)
Location 44.818429° 20.309211°
Runways 1
Magnetic Variation 4.720° E

METAR

LYBE 270530Z 09003KT 030V120 CAVOK 20/16 Q1020 NOSIG

Decode

TAF

TAF LYBE 262300Z 2700/2724 06008KT CAVOK TX29/2713Z TN15/2703Z PROB30 TEMPO 2713/2715 5000 TSRA SCT030CB SCT040

Decode

Destination Runways

ID Width Length Bearing (true) Bearing (mag) Surface Threshold Offset Overrun Length
12 148 ft / 45 m 11,138 ft / 3,395 m 122.00° 117.28° Asphalt 1,000 ft / 305 m 0 ft / 0 m
30 148 ft / 45 m 11,138 ft / 3,395 m 302.03° 297.31° Asphalt 1,312 ft / 400 m 0 ft / 0 m

Approach Navaids

Runway Type Ident Frequency Range Bearing (true) Bearing (mag) Slope Elevation
12 Localiser YUB 110.30 MHz 25 nm / 46 km 121.92° 117.20° - 315 ft / 96 m (AMSL)
12 Glidescope YUB 110.30 MHz 25 nm / 46 km 121.92° 117.20° 3.00° 305 ft / 93 m (AMSL)
30 Localiser YBE 109.90 MHz 25 nm / 46 km 301.94° 297.22° - 298 ft / 91 m (AMSL)
30 Glidescope YBE 109.90 MHz 25 nm / 46 km 301.94° 297.22° 3.00° 328 ft / 100 m (AMSL)